Time;durP1;ratioP1;P1;durP2;ratioP2;P2;SDS_P1;SDS_P2;PMS_P1;PMS_P2;Temp;Humidity;BMP_temperature;BMP_pressure;BME280_temperature;BME280_humidity;BME280_pressure;Samples;Min_cycle;Max_cycle;Signal;HPM_P1;HPM_P2
2021/12/25 00:01:13;;;;;;;36.88;18.25;;;;;;;5.76;54.52;94690.00;4993734;28;20025;-77
2021/12/25 00:03:38;;;;;;;31.02;17.27;;;;;;;5.82;54.80;94692.53;5010539;28;20375;-77
2021/12/25 00:06:04;;;;;;;25.50;15.43;;;;;;;5.78;54.43;94699.13;5010921;28;20393;-77
2021/12/25 00:08:31;;;;;;;28.75;17.33;;;;;;;5.73;54.36;94692.00;4977141;28;20571;-77
2021/12/25 00:10:56;;;;;;;32.08;17.77;;;;;;;5.51;55.00;94695.81;4993045;28;20072;-76
2021/12/25 00:13:22;;;;;;;38.75;19.30;;;;;;;5.35;55.79;94693.69;5010363;28;20042;-76
2021/12/25 00:15:48;;;;;;;41.10;19.73;;;;;;;5.30;56.07;94712.34;5010558;28;20040;-77
2021/12/25 00:18:14;;;;;;;46.30;20.95;;;;;;;5.35;56.10;94712.53;4992930;28;20120;-77
2021/12/25 00:20:39;;;;;;;38.70;21.58;;;;;;;5.25;56.36;94714.75;4960294;28;20030;-76
2021/12/25 00:23:24;;;;;;;42.53;21.55;;;;;;;5.11;56.65;94729.44;4976361;28;20033;-76
2021/12/25 00:25:56;;;;;;;33.10;18.85;;;;;;;5.01;56.48;94733.38;4962504;28;20033;-76
2021/12/25 00:35:56;;;;;;;32.00;18.25;;;;;;;5.02;56.50;94732.41;5010141;28;20425;-76
2021/12/25 00:38:24;;;;;;;36.40;19.30;;;;;;;5.00;56.67;94731.81;5010269;28;20041;-76
2021/12/25 00:40:49;;;;;;;35.88;17.98;;;;;;;5.03;56.20;94739.13;5010029;28;20034;-76
2021/12/25 00:43:15;;;;;;;29.35;16.50;;;;;;;5.01;56.10;94751.44;5009149;28;20092;-77
2021/12/25 00:45:40;;;;;;;30.77;17.27;;;;;;;5.11;56.78;94755.19;5009903;28;20088;-77
2021/12/25 00:48:06;;;;;;;28.75;17.90;;;;;;;5.06;56.37;94743.91;5010200;28;20033;-76
2021/12/25 00:50:31;;;;;;;30.45;16.27;;;;;;;5.15;56.27;94740.13;5009433;28;20478;-76
2021/12/25 00:52:57;;;;;;;30.45;16.73;;;;;;;5.10;55.75;94734.78;4975657;28;20044;-77
2021/12/25 00:55:22;;;;;;;26.40;16.05;;;;;;;5.18;55.90;94739.72;5010162;28;20037;-76
2021/12/25 00:57:48;;;;;;;32.65;15.95;;;;;;;5.24;56.04;94733.00;5009818;28;20037;-76
2021/12/25 01:00:14;;;;;;;30.15;15.68;;;;;;;5.29;55.69;94731.38;5010050;28;20489;-76
2021/12/25 01:02:42;;;;;;;31.92;16.58;;;;;;;5.32;55.60;94717.31;4991402;28;20452;-76
2021/12/25 01:05:11;;;;;;;26.50;14.90;;;;;;;5.33;55.51;94721.47;5009761;28;20034;-76
2021/12/25 01:07:39;;;;;;;28.48;14.98;;;;;;;5.36;55.67;94727.00;4976599;28;20105;-76
2021/12/25 01:10:07;;;;;;;30.75;16.35;;;;;;;5.39;55.18;94729.19;4992169;28;20425;-76
2021/12/25 01:12:47;;;;;;;27.35;16.85;;;;;;;5.40;55.30;94719.69;4973297;28;20552;-76
2021/12/25 01:15:13;;;;;;;36.25;18.00;;;;;;;5.27;55.81;94733.38;4956944;28;20033;-76
2021/12/25 01:33:43;;;;;;;55.33;27.45;;;;;;;5.21;55.45;94708.41;5009015;28;20125;-77
2021/12/25 01:49:39;;;;;;;81.90;39.70;;;;;;;4.82;57.14;94719.53;5009649;28;20061;-76
2021/12/25 01:52:04;;;;;;;60.65;26.02;;;;;;;4.85;56.67;94719.13;4983653;28;20033;-76
2021/12/25 01:54:30;;;;;;;52.17;27.73;;;;;;;4.80;57.37;94706.06;4991767;28;20045;-76
2021/12/25 01:56:55;;;;;;;73.90;37.42;;;;;;;4.79;56.97;94719.94;4978847;28;20398;-76
2021/12/25 01:59:21;;;;;;;62.15;33.35;;;;;;;4.75;57.63;94716.16;4995275;28;20046;-76
2021/12/25 02:01:46;;;;;;;79.50;43.75;;;;;;;4.74;57.73;94702.50;4995018;28;20033;-77
2021/12/25 02:04:12;;;;;;;68.55;36.55;;;;;;;4.76;57.97;94715.19;4978624;28;20104;-76
2021/12/25 02:06:37;;;;;;;61.47;31.45;;;;;;;4.77;57.68;94699.50;4995029;28;20030;-77
2021/12/25 02:09:04;;;;;;;35.72;17.30;;;;;;;4.81;58.08;94698.13;4994957;28;20037;-76
2021/12/25 02:11:29;;;;;;;35.28;19.70;;;;;;;4.90;57.61;94679.91;5012333;28;20077;-76
2021/12/25 02:13:55;;;;;;;34.42;16.38;;;;;;;4.98;58.12;94692.56;5012436;28;20470;-76
2021/12/25 02:16:24;;;;;;;64.97;33.30;;;;;;;5.09;57.00;94700.50;4994986;28;20044;-76
2021/12/25 02:19:01;;;;;;;47.17;26.52;;;;;;;5.16;57.46;94689.38;4995801;28;20543;-77
2021/12/25 02:21:34;;;;;;;34.15;16.77;;;;;;;5.29;57.24;94684.97;4999508;28;20707;-79
2021/12/25 02:24:00;;;;;;;50.55;25.60;;;;;;;5.36;56.96;94693.47;4967508;28;20125;-79
2021/12/25 02:26:26;;;;;;;48.00;26.15;;;;;;;5.36;55.85;94696.06;5001291;28;20102;-78
2021/12/25 02:28:55;;;;;;;48.13;24.42;;;;;;;5.40;56.52;94692.09;5019991;28;20038;-78
2021/12/25 02:31:20;;;;;;;48.70;24.30;;;;;;;5.45;55.45;94688.13;4996756;28;20430;-78
2021/12/25 02:33:45;;;;;;;49.40;24.65;;;;;;;5.50;55.50;94691.66;4981953;28;20038;-79
2021/12/25 02:36:12;;;;;;;41.47;21.90;;;;;;;5.50;55.49;94690.88;4981799;28;20033;-79
2021/12/25 02:38:38;;;;;;;32.60;18.98;;;;;;;5.52;55.27;94691.47;4965489;28;20041;-79
2021/12/25 02:41:03;;;;;;;38.33;19.58;;;;;;;5.50;55.54;94701.19;4997345;28;20040;-78
2021/12/25 02:43:29;;;;;;;36.70;18.58;;;;;;;5.50;55.65;94685.72;4980804;28;20082;-79
2021/12/25 02:45:55;;;;;;;31.23;16.83;;;;;;;5.56;56.09;94690.09;4964421;28;20485;-79
2021/12/25 02:48:21;;;;;;;26.13;15.07;;;;;;;5.56;55.95;94679.75;5015525;28;20040;-80
2021/12/25 02:50:47;;;;;;;29.73;17.58;;;;;;;5.61;55.35;94685.09;5015725;28;20133;-79
2021/12/25 02:53:12;;;;;;;27.65;16.02;;;;;;;5.65;55.85;94686.25;4997414;28;20493;-79
2021/12/25 02:55:39;;;;;;;26.60;15.80;;;;;;;5.67;54.75;94689.44;4998467;28;20065;-79
2021/12/25 02:58:04;;;;;;;26.70;15.43;;;;;;;5.66;55.50;94680.09;4966441;28;20046;-80
2021/12/25 03:00:36;;;;;;;27.25;16.13;;;;;;;5.69;55.76;94679.69;5026442;28;20077;-77
2021/12/25 03:03:03;;;;;;;26.73;15.43;;;;;;;5.73;55.61;94697.16;5006473;28;20509;-77
2021/12/25 03:05:29;;;;;;;34.40;18.98;;;;;;;5.59;55.74;94684.50;5022897;28;20435;-78
2021/12/25 03:07:54;;;;;;;47.85;25.42;;;;;;;5.57;55.72;94691.66;5328475;22;20012;-78
2021/12/25 03:10:22;;;;;;;49.20;25.88;;;;;;;5.52;55.88;94688.88;5033510;28;20034;-78
2021/12/25 03:12:52;;;;;;;49.75;26.08;;;;;;;5.55;56.45;94688.50;5032157;28;20120;-79
2021/12/25 03:15:28;;;;;;;61.25;31.30;;;;;;;5.59;57.00;94694.81;5033263;28;20049;-80
2021/12/25 03:17:54;;;;;;;47.30;27.85;;;;;;;5.57;56.47;94686.50;5033169;28;20401;-79
2021/12/25 03:20:22;;;;;;;36.13;20.80;;;;;;;5.61;56.21;94690.25;5170122;23;20068;-79
2021/12/25 03:22:48;;;;;;;47.42;25.95;;;;;;;5.62;56.07;94689.25;5032465;28;20030;-77
2021/12/25 03:25:13;;;;;;;38.90;20.35;;;;;;;5.72;56.08;94689.63;5034237;28;20029;-79
2021/12/25 03:27:40;;;;;;;43.42;24.35;;;;;;;5.70;56.46;94697.56;5017544;28;20064;-78
2021/12/25 03:30:06;;;;;;;42.22;23.52;;;;;;;5.77;55.49;94692.38;5017074;28;20037;-78
2021/12/25 03:32:31;;;;;;;62.17;29.60;;;;;;;5.82;55.33;94695.13;5022575;28;20033;-78
2021/12/25 03:34:57;;;;;;;44.85;24.10;;;;;;;5.82;56.01;94692.53;5033615;28;20040;-79
2021/12/25 03:37:25;;;;;;;75.72;38.60;;;;;;;5.87;55.56;94682.41;5016460;28;20025;-79
2021/12/25 03:39:51;;;;;;;87.38;44.78;;;;;;;5.83;55.44;94686.38;5016346;28;20042;-79
2021/12/25 03:42:16;;;;;;;145.73;81.07;;;;;;;5.83;55.80;94686.38;5033117;28;20030;-79
2021/12/25 03:44:42;;;;;;;129.27;69.63;;;;;;;5.78;56.23;94683.63;5031661;28;20048;-78
2021/12/25 03:58:13;;;;;;;73.82;38.05;;;;;;;5.86;55.87;94700.69;5033853;28;20049;-78
2021/12/25 04:00:41;;;;;;;22.13;13.98;;;;;;;5.72;56.20;94702.53;5032430;28;20088;-78
2021/12/25 04:03:08;;;;;;;23.33;12.88;;;;;;;5.73;55.93;94696.38;5016695;28;20555;-78
2021/12/25 04:05:36;;;;;;;41.60;19.52;;;;;;;5.83;55.61;94699.28;5032761;28;20057;-78
2021/12/25 04:08:10;;;;;;;27.98;15.05;;;;;;;5.90;55.73;94687.19;5016392;28;20025;-79
2021/12/25 04:10:40;;;;;;;20.60;13.02;;;;;;;5.96;55.18;94686.38;5033915;28;20033;-79
2021/12/25 04:13:08;;;;;;;62.78;32.70;;;;;;;6.08;55.29;94693.47;5000611;28;20030;-79
2021/12/25 04:15:34;;;;;;;115.05;56.80;;;;;;;6.15;55.15;94694.22;5015770;28;20033;-79
2021/12/25 04:18:00;;;;;;;99.93;46.85;;;;;;;6.09;55.28;94689.88;5033808;28;20037;-79
2021/12/25 04:20:26;;;;;;;40.28;21.67;;;;;;;6.14;55.17;94683.09;5034484;28;20045;-79
2021/12/25 04:23:02;;;;;;;88.00;40.28;;;;;;;6.22;55.04;94710.47;5032863;28;20102;-79
2021/12/25 04:25:31;;;;;;;77.38;40.70;;;;;;;6.12;55.16;94708.31;5031206;28;20069;-79
2021/12/25 04:28:01;;;;;;;59.92;31.90;;;;;;;6.08;55.25;94698.63;5033976;28;20622;-78
2021/12/25 05:06:00;;;;;;;31.52;16.73;;;;;;;5.67;57.32;94713.44;5032848;28;20075;-80
2021/12/25 05:08:35;;;;;;;26.30;13.23;;;;;;;5.65;56.82;94730.91;5030357;28;20921;-79
2021/12/25 05:11:01;;;;;;;35.05;16.85;;;;;;;5.70;56.99;94714.84;5031935;28;20571;-79
2021/12/25 05:13:26;;;;;;;28.80;14.18;;;;;;;5.72;56.69;94736.06;5032526;28;20029;-79
2021/12/25 05:15:52;;;;;;;22.20;12.95;;;;;;;5.76;56.55;94744.19;5033530;28;20037;-79
2021/12/25 05:18:20;;;;;;;18.05;11.35;;;;;;;5.84;56.55;94739.56;5015851;28;20049;-79
2021/12/25 05:20:45;;;;;;;22.20;12.32;;;;;;;5.88;56.03;94743.34;5032550;28;20041;-79
2021/12/25 05:23:11;;;;;;;33.67;14.27;;;;;;;5.94;56.45;94734.81;5031543;28;20038;-80
2021/12/25 05:25:38;;;;;;;23.92;13.45;;;;;;;5.99;55.97;94747.09;5031117;28;20052;-78
2021/12/25 05:28:04;;;;;;;22.13;14.18;;;;;;;6.05;55.98;94745.50;5030822;28;20041;-78
2021/12/25 05:30:30;;;;;;;21.17;12.35;;;;;;;6.01;56.11;94758.00;5030508;28;20033;-79
2021/12/25 05:32:55;;;;;;;18.75;12.18;;;;;;;6.08;55.81;94737.34;5014607;28;20040;-78
2021/12/25 05:35:21;;;;;;;18.83;11.23;;;;;;;6.12;55.53;94730.78;5015156;28;20033;-79
2021/12/25 05:37:47;;;;;;;18.98;11.02;;;;;;;6.14;55.32;94742.47;5030937;28;20132;-79
2021/12/25 05:40:13;;;;;;;29.02;15.07;;;;;;;6.19;55.42;94747.03;5030661;28;20030;-80
2021/12/25 05:42:38;;;;;;;27.33;16.02;;;;;;;6.26;55.14;94758.13;5019823;28;20120;-79
2021/12/25 05:45:05;;;;;;;44.50;23.23;;;;;;;6.24;55.96;94742.84;4998877;28;20033;-79
2021/12/25 05:47:30;;;;;;;24.75;13.88;;;;;;;6.18;55.78;94746.25;5031940;28;20032;-79
2021/12/25 05:49:56;;;;;;;24.90;12.95;;;;;;;6.27;55.32;94757.13;5031518;28;20033;-79
2021/12/25 05:52:23;;;;;;;30.80;17.85;;;;;;;6.33;55.04;94764.03;5014556;28;20034;-79
2021/12/25 05:54:49;;;;;;;22.90;13.10;;;;;;;6.31;55.27;94755.69;5015128;28;20076;-79
2021/12/25 05:57:14;;;;;;;17.60;8.93;;;;;;;6.32;55.05;94767.59;5014604;28;20033;-79
2021/12/25 05:59:40;;;;;;;18.70;9.90;;;;;;;6.41;55.17;94770.75;5032730;28;20100;-79
2021/12/25 06:02:05;;;;;;;17.67;10.02;;;;;;;6.48;54.60;94774.09;5032567;28;20033;-78
2021/12/25 06:04:31;;;;;;;24.35;14.38;;;;;;;6.56;54.39;94779.81;5034605;28;20432;-79
2021/12/25 06:06:56;;;;;;;45.90;23.73;;;;;;;6.52;55.13;94773.50;5031764;28;20114;-80
2021/12/25 06:09:24;;;;;;;27.73;17.75;;;;;;;6.60;55.01;94764.69;5032904;28;20037;-79
2021/12/25 06:11:51;;;;;;;90.72;49.65;;;;;;;6.58;54.54;94772.66;5031439;28;20042;-81
2021/12/25 06:14:19;;;;;;;86.78;51.33;;;;;;;6.56;55.03;94766.91;5031113;28;20061;-80
2021/12/25 06:16:45;;;;;;;71.95;37.78;;;;;;;6.57;55.22;94772.84;5014189;28;20049;-80
2021/12/25 06:19:10;;;;;;;75.55;41.13;;;;;;;6.61;54.27;94787.72;5014779;28;20041;-79
2021/12/25 06:21:36;;;;;;;91.78;47.53;;;;;;;6.59;54.76;94794.91;4995900;28;20037;-77
2021/12/25 06:24:03;;;;;;;136.25;72.72;;;;;;;6.61;54.53;94772.22;5027239;28;20488;-77
2021/12/25 06:26:29;;;;;;;63.90;29.00;;;;;;;6.68;54.57;94781.75;5029209;28;20046;-77
2021/12/25 06:28:54;;;;;;;91.38;46.88;;;;;;;6.75;54.89;94772.94;5027772;28;20041;-77
2021/12/25 06:31:21;;;;;;;69.25;33.92;;;;;;;6.73;54.62;94763.81;5029013;28;20057;-78
2021/12/25 06:33:46;;;;;;;63.08;33.05;;;;;;;6.78;54.34;94788.03;5013848;28;20068;-80
2021/12/25 06:36:27;;;;;;;120.18;61.42;;;;;;;6.78;54.40;94787.25;5031151;28;20037;-79
2021/12/25 06:38:54;;;;;;;175.43;89.13;;;;;;;6.80;54.69;94778.28;5032655;28;20042;-79
2021/12/25 06:41:20;;;;;;;159.55;83.32;;;;;;;6.70;54.89;94785.72;5033086;28;20087;-80
2021/12/25 06:43:46;;;;;;;151.40;74.35;;;;;;;6.72;54.63;94777.75;5038597;28;20512;-79
2021/12/25 06:46:11;;;;;;;135.60;69.30;;;;;;;6.77;54.63;94796.00;5035661;28;20032;-79
2021/12/25 06:48:39;;;;;;;172.50;89.82;;;;;;;6.78;54.43;94789.81;5039660;28;20026;-80
2021/12/25 06:51:10;;;;;;;187.13;97.47;;;;;;;6.76;54.54;94790.03;5038221;28;20026;-80
2021/12/25 06:53:37;;;;;;;144.00;78.28;;;;;;;6.80;54.81;94795.56;5003090;28;20036;-80
2021/12/25 06:56:03;;;;;;;127.75;66.72;;;;;;;6.87;54.52;94793.75;5018824;28;20022;-80
2021/12/25 06:58:28;;;;;;;73.63;36.15;;;;;;;6.90;53.60;94795.91;5035787;28;20388;-80
2021/12/25 07:00:54;;;;;;;67.03;34.83;;;;;;;6.93;53.93;94795.50;5002266;28;20033;-80
2021/12/25 07:03:19;;;;;;;59.58;33.70;;;;;;;6.97;53.89;94796.66;5035980;28;20044;-80
2021/12/25 07:05:45;;;;;;;52.30;30.45;;;;;;;7.09;53.94;94814.88;5035830;28;20024;-81
2021/12/25 07:08:10;;;;;;;66.60;35.85;;;;;;;7.17;53.96;94818.00;5017463;28;20053;-80
2021/12/25 07:10:36;;;;;;;71.32;39.45;;;;;;;7.34;53.42;94820.06;5018107;28;20029;-82
2021/12/25 07:13:02;;;;;;;72.72;36.92;;;;;;;7.43;53.11;94816.19;5035032;28;20041;-80
2021/12/25 07:15:27;;;;;;;50.97;30.40;;;;;;;7.48;52.89;94808.59;5017243;28;20431;-80
2021/12/25 07:17:53;;;;;;;59.85;30.98;;;;;;;7.51;52.63;94813.38;5017336;28;20191;-80
2021/12/25 07:20:18;;;;;;;88.55;48.15;;;;;;;7.51;52.80;94810.78;5034220;28;20116;-81
2021/12/25 07:22:44;;;;;;;36.92;21.92;;;;;;;7.59;52.42;94809.69;5017766;28;20034;-80
2021/12/25 07:25:09;;;;;;;47.70;24.38;;;;;;;7.61;52.65;94799.94;5033687;28;20033;-81
2021/12/25 07:27:35;;;;;;;47.90;25.58;;;;;;;7.67;52.07;94810.22;5035419;28;20048;-80
2021/12/25 07:30:02;;;;;;;57.70;31.48;;;;;;;7.72;52.16;94810.38;5017427;28;20139;-79
2021/12/25 07:32:28;;;;;;;73.25;40.00;;;;;;;7.73;52.79;94811.16;5040925;28;20033;-80
2021/12/25 07:34:53;;;;;;;69.10;35.95;;;;;;;7.77;52.02;94818.28;5036084;28;20083;-78
2021/12/25 07:37:19;;;;;;;64.45;35.83;;;;;;;7.79;51.86;94816.25;5034749;28;20037;-78
2021/12/25 07:39:45;;;;;;;60.00;32.10;;;;;;;7.81;51.80;94824.63;5035872;28;20079;-78
2021/12/25 07:42:14;;;;;;;88.78;41.85;;;;;;;7.93;51.83;94818.72;5033194;28;20112;-77
2021/12/25 07:44:39;;;;;;;45.55;24.60;;;;;;;7.95;51.73;94814.13;5015234;28;20562;-77
2021/12/25 07:47:11;;;;;;;52.75;28.20;;;;;;;8.02;51.48;94825.22;5019030;28;20033;-77
2021/12/25 07:49:36;;;;;;;76.28;38.63;;;;;;;8.08;51.63;94819.97;5036223;28;20079;-77
2021/12/25 07:52:03;;;;;;;50.70;27.25;;;;;;;8.15;51.53;94819.91;5021405;28;20258;-78
2021/12/25 07:54:28;;;;;;;62.03;32.88;;;;;;;8.27;50.68;94828.53;5036054;28;20129;-78
2021/12/25 07:56:54;;;;;;;75.95;40.60;;;;;;;8.29;51.05;94821.31;5035304;28;20038;-77
2021/12/25 07:59:20;;;;;;;45.70;22.73;;;;;;;8.29;50.66;94821.31;5031788;28;20040;-77
2021/12/25 08:01:45;;;;;;;91.03;44.95;;;;;;;8.40;51.01;94832.78;5015224;28;20037;-77
2021/12/25 08:04:11;;;;;;;77.68;41.00;;;;;;;8.49;50.00;94835.91;4999024;28;20432;-78
2021/12/25 08:06:39;;;;;;;43.22;25.17;;;;;;;8.47;49.88;94830.16;5039257;28;20685;-77
2021/12/25 08:09:27;;;;;;;39.92;22.55;;;;;;;8.59;50.05;94833.56;5033336;28;20059;-77
2021/12/25 08:11:46;;;;;;;67.78;35.95;;;;;;;8.75;49.51;94839.94;5019547;23;20068;-76
2021/12/25 08:14:14;;;;;;;86.47;42.38;;;;;;;8.79;49.50;94836.72;5038194;28;20025;-77
2021/12/25 08:16:39;;;;;;;48.15;29.50;;;;;;;8.84;49.32;94834.25;5039163;28;20053;-77
2021/12/25 08:19:05;;;;;;;61.95;34.88;;;;;;;8.91;49.15;94832.34;5005088;28;20052;-76
2021/12/25 08:21:30;;;;;;;78.53;37.58;;;;;;;8.99;49.17;94821.66;5005240;28;20038;-76
2021/12/25 08:23:58;;;;;;;40.05;19.10;;;;;;;9.18;48.52;94824.19;5022402;28;20145;-78
2021/12/25 08:26:23;;;;;;;35.83;18.23;;;;;;;9.34;48.04;94833.94;5005974;28;20079;-76
2021/12/25 08:28:48;;;;;;;35.78;20.45;;;;;;;9.51;47.67;94834.84;5005724;28;20086;-76
2021/12/25 08:31:14;;;;;;;26.15;15.13;;;;;;;9.63;48.12;94827.88;5005787;28;20408;-76
2021/12/25 08:33:39;;;;;;;24.83;14.98;;;;;;;9.75;47.27;94834.88;5005847;28;20033;-77
2021/12/25 08:36:05;;;;;;;20.98;12.90;;;;;;;9.79;46.57;94836.00;5029091;28;20046;-76
2021/12/25 08:38:30;;;;;;;17.52;11.55;;;;;;;9.91;46.26;94826.38;5021120;28;20044;-76
2021/12/25 08:40:57;;;;;;;15.82;10.18;;;;;;;10.04;46.72;94822.78;5037949;28;20041;-76
2021/12/25 08:43:25;;;;;;;17.20;10.07;;;;;;;10.19;45.66;94816.09;5004899;28;20267;-78
2021/12/25 08:46:02;;;;;;;17.33;10.10;;;;;;;10.32;45.54;94811.69;5022788;28;20112;-77
2021/12/25 08:48:27;;;;;;;24.27;10.88;;;;;;;10.30;45.56;94811.13;5022744;28;20190;-77
2021/12/25 08:50:55;;;;;;;17.80;10.27;;;;;;;10.31;44.69;94812.72;5004705;28;20473;-77
2021/12/25 08:53:21;;;;;;;13.93;9.52;;;;;;;10.30;45.16;94809.31;4989961;28;20037;-77
2021/12/25 08:55:47;;;;;;;15.60;9.65;;;;;;;10.32;45.21;94801.31;5019793;28;20025;-78
2021/12/25 08:58:13;;;;;;;13.65;8.90;;;;;;;10.38;44.55;94802.97;5039945;28;20033;-78
2021/12/25 09:00:39;;;;;;;16.48;8.93;;;;;;;10.51;44.59;94807.91;5022604;28;20033;-77
2021/12/25 09:03:04;;;;;;;13.75;9.05;;;;;;;10.68;43.84;94800.94;5003409;28;20596;-78
2021/12/25 09:05:30;;;;;;;15.15;9.70;;;;;;;10.80;44.03;94793.91;5005462;28;20079;-78
2021/12/25 09:07:56;;;;;;;14.65;9.02;;;;;;;10.89;44.50;94796.91;5041727;28;20059;-78
2021/12/25 09:10:22;;;;;;;18.48;11.02;;;;;;;10.88;44.37;94784.91;5041264;28;20037;-77
2021/12/25 09:12:49;;;;;;;17.52;9.55;;;;;;;10.98;43.66;94786.91;5040558;28;20029;-78
2021/12/25 09:15:15;;;;;;;25.17;10.30;;;;;;;11.01;43.83;94783.84;5008432;28;20028;-78
2021/12/25 09:17:42;;;;;;;17.77;9.50;;;;;;;11.10;43.33;94790.25;5024469;28;20033;-78
2021/12/25 09:20:08;;;;;;;25.08;10.50;;;;;;;11.13;43.21;94785.34;5007463;28;20424;-78
2021/12/25 09:22:34;;;;;;;15.30;9.75;;;;;;;11.25;43.24;94782.69;5023510;28;20029;-77
2021/12/25 09:24:59;;;;;;;15.73;9.20;;;;;;;11.31;42.88;94776.53;5004757;28;20081;-77
2021/12/25 09:27:25;;;;;;;17.80;9.55;;;;;;;11.33;42.88;94779.69;5022085;28;20029;-77
2021/12/25 09:29:50;;;;;;;17.52;9.27;;;;;;;11.29;42.79;94767.38;5021505;28;20025;-77
2021/12/25 09:32:16;;;;;;;16.08;9.25;;;;;;;11.25;43.04;94777.47;5004477;28;20040;-77
2021/12/25 09:34:41;;;;;;;26.90;11.27;;;;;;;11.30;43.00;94758.53;5018853;28;20036;-77
2021/12/25 09:37:06;;;;;;;23.52;10.85;;;;;;;11.23;42.81;94769.13;5005249;28;20037;-77
2021/12/25 09:39:35;;;;;;;16.45;10.15;;;;;;;11.25;42.83;94753.28;5039177;28;20163;-78
2021/12/25 09:42:00;;;;;;;23.92;11.18;;;;;;;11.16;43.30;94752.84;5020112;28;20030;-77
2021/12/25 09:44:26;;;;;;;17.35;9.32;;;;;;;11.21;43.30;94745.13;5005069;28;20040;-77
2021/12/25 09:46:52;;;;;;;14.38;10.25;;;;;;;11.36;42.66;94752.38;5004094;28;20029;-77
2021/12/25 09:49:17;;;;;;;23.17;10.15;;;;;;;11.32;42.67;94740.88;5021309;28;20033;-77
2021/12/25 09:51:42;;;;;;;24.55;10.60;;;;;;;11.29;42.47;94746.56;5021922;28;20508;-77
2021/12/25 09:54:14;;;;;;;18.30;11.23;;;;;;;11.20;42.54;94733.13;5005087;28;20033;-77
2021/12/25 09:56:40;;;;;;;23.48;13.13;;;;;;;11.15;43.09;94738.28;5022652;28;20052;-77
2021/12/25 09:59:06;;;;;;;19.45;11.30;;;;;;;11.14;43.23;94739.31;5039470;28;20095;-77
2021/12/25 10:01:49;;;;;;;15.57;10.50;;;;;;;11.10;43.18;94730.41;5027777;28;20054;-77
2021/12/25 10:04:36;;;;;;;18.58;10.85;;;;;;;11.06;42.91;94731.88;5020997;28;20053;-77
2021/12/25 10:07:22;;;;;;;21.70;10.93;;;;;;;11.02;43.38;94741.19;5016801;28;20777;-77
2021/12/25 10:10:10;;;;;;;20.67;9.68;;;;;;;11.08;43.42;94716.84;5002163;28;20037;-76
2021/12/25 10:12:46;;;;;;;21.33;9.68;;;;;;;10.98;43.25;94724.47;5017146;28;20650;-77
2021/12/25 10:15:19;;;;;;;21.65;9.90;;;;;;;11.03;43.24;94716.72;5018295;28;20025;-77
2021/12/25 10:17:47;;;;;;;19.15;10.00;;;;;;;11.01;43.43;94710.97;5023863;28;20071;-77
2021/12/25 10:20:16;;;;;;;19.23;10.35;;;;;;;11.05;43.33;94709.47;5007587;28;20113;-77
2021/12/25 10:23:15;;;;;;;21.13;11.70;;;;;;;11.12;44.06;94710.13;5023143;28;20477;-77
2021/12/25 10:25:55;;;;;;;27.08;11.50;;;;;;;11.18;43.72;94708.38;5042497;28;20500;-76
2021/12/25 10:28:41;;;;;;;31.27;12.20;;;;;;;11.18;43.46;94703.16;5007183;28;20040;-76
2021/12/25 10:31:10;;;;;;;22.85;12.70;;;;;;;11.15;43.30;94698.44;5047305;28;20534;-76
2021/12/25 10:33:55;;;;;;;19.58;11.60;;;;;;;11.09;43.40;94705.41;5005061;28;20033;-77
2021/12/25 10:36:27;;;;;;;25.10;13.15;;;;;;;11.15;43.66;94694.03;5027198;28;20029;-75
2021/12/25 10:38:56;;;;;;;;;;;;;;;10.92;43.72;94702.78;5022343;28;20112;-78
2021/12/25 10:41:24;;;;;;;32.28;12.40;;;;;;;10.95;44.13;94698.94;5042077;28;19917;-77
2021/12/25 10:43:52;;;;;;;30.95;13.98;;;;;;;10.99;43.72;94694.81;5040512;28;20511;-78
2021/12/25 10:46:18;;;;;;;30.45;14.32;;;;;;;11.02;43.82;94694.34;5010199;28;20052;-78
2021/12/25 10:48:43;;;;;;;33.03;15.52;;;;;;;11.03;43.77;94688.91;5010426;28;20040;-79
2021/12/25 10:51:26;;;;;;;43.10;16.98;;;;;;;11.03;43.58;94693.31;5025469;28;20041;-77
2021/12/25 10:53:52;;;;;;;31.45;14.13;;;;;;;10.93;44.28;94678.34;5048159;28;20001;-78
2021/12/25 10:56:19;;;;;;;26.45;14.07;;;;;;;10.95;44.41;94683.31;5048105;28;20489;-79
2021/12/25 10:58:54;;;;;;;33.25;14.50;;;;;;;10.87;44.11;94681.88;5025042;28;20040;-78
2021/12/25 11:01:22;;;;;;;23.70;14.90;;;;;;;10.78;44.30;94678.91;5044799;28;20041;-78
2021/12/25 11:03:48;;;;;;;34.95;14.85;;;;;;;10.94;44.72;94671.34;5010188;28;20025;-78
2021/12/25 11:06:17;;;;;;;26.80;14.57;;;;;;;11.01;44.10;94667.53;5026674;28;20033;-79
2021/12/25 11:08:45;;;;;;;29.23;14.02;;;;;;;10.94;44.54;94653.13;5010843;28;20033;-78
2021/12/25 11:11:18;;;;;;;20.20;13.50;;;;;;;10.94;44.51;94659.13;5025837;28;20029;-78
2021/12/25 11:13:43;;;;;;;29.05;14.05;;;;;;;10.94;44.57;94645.31;5011048;28;20048;-79
2021/12/25 11:16:19;;;;;;;25.08;13.73;;;;;;;10.73;44.89;94637.19;5027507;28;20404;-78
2021/12/25 11:19:09;;;;;;;27.80;13.52;;;;;;;10.55;45.36;94642.63;5046576;28;20033;-78
2021/12/25 11:21:37;;;;;;;26.02;15.20;;;;;;;10.69;45.01;94643.91;5044123;28;20044;-78
2021/12/25 11:24:06;;;;;;;33.17;16.50;;;;;;;10.62;45.73;94627.66;5044435;28;20029;-78
2021/12/25 11:26:32;;;;;;;37.67;16.08;;;;;;;10.76;45.11;94634.13;5028531;28;20087;-79
2021/12/25 11:28:58;;;;;;;42.83;19.30;;;;;;;10.65;45.24;94627.19;5010068;28;20025;-78
2021/12/25 11:31:23;;;;;;;49.00;21.00;;;;;;;10.74;45.31;94619.81;5024627;28;20032;-78
2021/12/25 11:33:50;;;;;;;40.03;20.50;;;;;;;10.72;45.53;94614.81;5008966;28;20389;-78
2021/12/25 11:36:17;;;;;;;42.47;21.08;;;;;;;10.78;45.42;94621.69;4994163;28;20033;-78
2021/12/25 11:38:42;;;;;;;40.25;22.25;;;;;;;10.87;45.75;94618.66;5009953;28;20064;-78
2021/12/25 11:41:09;;;;;;;40.63;21.55;;;;;;;10.86;45.75;94609.28;4990797;28;20025;-78
2021/12/25 11:43:47;;;;;;;44.88;23.10;;;;;;;10.76;45.65;94597.72;5009765;28;20515;-78
2021/12/25 11:46:14;;;;;;;36.60;20.88;;;;;;;10.79;45.66;94601.66;5018057;28;20040;-78
2021/12/25 11:48:40;;;;;;;42.63;22.08;;;;;;;10.89;46.17;94601.78;5027626;28;20041;-78
2021/12/25 11:51:32;;;;;;;40.05;21.50;;;;;;;10.90;46.42;94608.59;5010666;28;20393;-78
2021/12/25 11:59:08;;;;;;;50.92;21.48;;;;;;;10.87;46.71;94603.06;5010417;28;20061;-78
2021/12/25 12:01:44;;;;;;;39.75;20.27;;;;;;;11.00;46.31;94602.72;5040445;28;20076;-78
2021/12/25 12:04:09;;;;;;;35.00;19.38;;;;;;;11.09;46.47;94606.50;5023021;28;20044;-77
2021/12/25 12:06:56;;;;;;;37.42;17.42;;;;;;;11.09;46.32;94607.31;5041138;28;20038;-78
2021/12/25 12:09:30;;;;;;;38.38;18.15;;;;;;;11.12;46.43;94608.63;5042019;28;20048;-79
2021/12/25 12:12:07;;;;;;;35.28;18.35;;;;;;;11.21;46.28;94606.41;5038484;28;20057;-78
2021/12/25 12:14:32;;;;;;;27.90;16.73;;;;;;;11.13;45.90;94599.81;5043227;28;20502;-79
2021/12/25 12:16:59;;;;;;;31.80;17.85;;;;;;;11.27;46.06;94602.84;5027023;28;20485;-79
2021/12/25 12:19:38;;;;;;;41.90;15.43;;;;;;;11.36;45.95;94607.38;5009954;28;20030;-79
2021/12/25 12:22:31;;;;;;;26.30;14.48;;;;;;;11.43;45.19;94602.81;5041950;28;20464;-78
2021/12/25 12:25:45;;;;;;;29.45;14.48;;;;;;;11.49;45.32;94601.03;5045682;28;20029;-78
2021/12/25 12:28:11;;;;;;;27.30;13.85;;;;;;;11.37;47.64;94614.16;5041082;28;20060;-77
2021/12/25 12:30:56;;;;;;;23.40;14.30;;;;;;;11.42;48.14;94611.63;5023191;28;20417;-77
2021/12/25 12:33:22;;;;;;;27.80;13.88;;;;;;;11.46;47.27;94616.38;5041089;28;20055;-77
2021/12/25 12:35:48;;;;;;;32.55;15.02;;;;;;;11.48;46.39;94609.09;5041226;28;20561;-76
2021/12/25 12:38:27;;;;;;;29.25;15.00;;;;;;;11.64;46.08;94618.66;5022327;28;20033;-77
2021/12/25 12:41:33;;;;;;;42.65;19.23;;;;;;;11.76;45.81;94621.16;5039551;28;20060;-77
2021/12/25 12:44:10;;;;;;;42.15;21.58;;;;;;;11.80;46.29;94612.63;5022038;28;20044;-77
2021/12/25 12:46:51;;;;;;;40.83;19.85;;;;;;;11.88;46.40;94614.81;5030868;28;20091;-78
2021/12/25 12:49:41;;;;;;;72.57;33.63;;;;;;;11.92;45.85;94610.69;5024497;28;20038;-77
2021/12/25 12:52:09;;;;;;;41.75;20.70;;;;;;;12.41;44.27;94610.63;5018166;28;20102;-76
2021/12/25 12:54:42;;;;;;;54.75;20.98;;;;;;;12.37;44.08;94612.16;5040720;28;20068;-78
2021/12/25 12:57:08;;;;;;;536.28;301.55;;;;;;;12.47;43.40;94616.66;4998426;28;20040;-78